sensor_id;sensor_type;location;lat;lon;timestamp;P1;durP1;ratioP1;P2;durP2;ratioP2
32347;SDS011;18821;44.800;10.326;2024-03-17T00:00:45;20.67;;;12.50;;
32347;SDS011;18821;44.800;10.326;2024-03-17T00:03:10;14.10;;;8.52;;
32347;SDS011;18821;44.800;10.326;2024-03-17T00:05:37;13.65;;;7.25;;
32347;SDS011;18821;44.800;10.326;2024-03-17T00:08:03;13.32;;;8.40;;
32347;SDS011;18821;44.800;10.326;2024-03-17T00:10:32;20.83;;;9.85;;
32347;SDS011;18821;44.800;10.326;2024-03-17T00:12:58;16.15;;;8.18;;
32347;SDS011;18821;44.800;10.326;2024-03-17T00:15:24;13.65;;;7.35;;
32347;SDS011;18821;44.800;10.326;2024-03-17T00:17:50;17.83;;;8.60;;
32347;SDS011;18821;44.800;10.326;2024-03-17T00:20:16;13.00;;;7.65;;
32347;SDS011;18821;44.800;10.326;2024-03-17T00:22:49;13.95;;;8.50;;
32347;SDS011;18821;44.800;10.326;2024-03-17T00:25:16;23.30;;;11.68;;
32347;SDS011;18821;44.800;10.326;2024-03-17T00:27:43;13.68;;;7.95;;
32347;SDS011;18821;44.800;10.326;2024-03-17T00:30:10;13.95;;;7.22;;
32347;SDS011;18821;44.800;10.326;2024-03-17T00:32:41;12.80;;;6.78;;
32347;SDS011;18821;44.800;10.326;2024-03-17T00:35:07;10.73;;;7.40;;
32347;SDS011;18821;44.800;10.326;2024-03-17T00:37:36;14.65;;;7.55;;
32347;SDS011;18821;44.800;10.326;2024-03-17T00:40:02;13.23;;;7.88;;
32347;SDS011;18821;44.800;10.326;2024-03-17T00:42:29;11.25;;;7.15;;
32347;SDS011;18821;44.800;10.326;2024-03-17T00:44:55;13.27;;;6.63;;
32347;SDS011;18821;44.800;10.326;2024-03-17T00:47:21;12.23;;;5.88;;
32347;SDS011;18821;44.800;10.326;2024-03-17T00:49:47;9.45;;;6.28;;
32347;SDS011;18821;44.800;10.326;2024-03-17T00:52:16;12.45;;;6.30;;
32347;SDS011;18821;44.800;10.326;2024-03-17T00:54:42;9.40;;;6.45;;
32347;SDS011;18821;44.800;10.326;2024-03-17T00:57:08;10.68;;;6.70;;
32347;SDS011;18821;44.800;10.326;2024-03-17T00:59:33;14.88;;;6.35;;
32347;SDS011;18821;44.800;10.326;2024-03-17T01:01:59;9.00;;;6.28;;
32347;SDS011;18821;44.800;10.326;2024-03-17T01:04:25;7.95;;;5.65;;
32347;SDS011;18821;44.800;10.326;2024-03-17T01:06:51;12.77;;;6.22;;
32347;SDS011;18821;44.800;10.326;2024-03-17T01:09:17;10.43;;;5.78;;
32347;SDS011;18821;44.800;10.326;2024-03-17T01:11:43;14.77;;;7.07;;
32347;SDS011;18821;44.800;10.326;2024-03-17T01:14:09;12.32;;;6.40;;
32347;SDS011;18821;44.800;10.326;2024-03-17T01:16:35;13.65;;;5.65;;
32347;SDS011;18821;44.800;10.326;2024-03-17T01:19:01;13.38;;;6.47;;
32347;SDS011;18821;44.800;10.326;2024-03-17T01:21:27;11.02;;;5.97;;
32347;SDS011;18821;44.800;10.326;2024-03-17T01:23:53;9.55;;;6.03;;
32347;SDS011;18821;44.800;10.326;2024-03-17T01:26:18;16.05;;;6.20;;
32347;SDS011;18821;44.800;10.326;2024-03-17T01:28:44;7.35;;;4.93;;
32347;SDS011;18821;44.800;10.326;2024-03-17T01:31:10;9.15;;;5.03;;
32347;SDS011;18821;44.800;10.326;2024-03-17T01:33:36;13.07;;;4.93;;
32347;SDS011;18821;44.800;10.326;2024-03-17T01:36:02;9.88;;;5.28;;
32347;SDS011;18821;44.800;10.326;2024-03-17T01:38:28;11.23;;;5.45;;
32347;SDS011;18821;44.800;10.326;2024-03-17T01:40:53;11.98;;;5.18;;
32347;SDS011;18821;44.800;10.326;2024-03-17T01:43:19;9.68;;;5.05;;
32347;SDS011;18821;44.800;10.326;2024-03-17T01:45:46;9.32;;;5.05;;
32347;SDS011;18821;44.800;10.326;2024-03-17T01:48:13;9.55;;;4.50;;
32347;SDS011;18821;44.800;10.326;2024-03-17T01:50:41;8.68;;;4.22;;
32347;SDS011;18821;44.800;10.326;2024-03-17T01:53:09;12.02;;;4.63;;
32347;SDS011;18821;44.800;10.326;2024-03-17T01:55:39;9.05;;;4.75;;
32347;SDS011;18821;44.800;10.326;2024-03-17T01:58:07;7.65;;;4.75;;
32347;SDS011;18821;44.800;10.326;2024-03-17T02:00:35;11.27;;;4.78;;
32347;SDS011;18821;44.800;10.326;2024-03-17T02:03:06;7.97;;;4.85;;
32347;SDS011;18821;44.800;10.326;2024-03-17T02:05:38;11.23;;;5.20;;
32347;SDS011;18821;44.800;10.326;2024-03-17T02:08:04;19.50;;;6.15;;
32347;SDS011;18821;44.800;10.326;2024-03-17T02:10:35;6.45;;;4.75;;
32347;SDS011;18821;44.800;10.326;2024-03-17T02:13:02;13.27;;;5.60;;
32347;SDS011;18821;44.800;10.326;2024-03-17T02:15:31;10.05;;;4.60;;
32347;SDS011;18821;44.800;10.326;2024-03-17T02:17:58;10.15;;;4.95;;
32347;SDS011;18821;44.800;10.326;2024-03-17T02:20:24;7.95;;;4.97;;
32347;SDS011;18821;44.800;10.326;2024-03-17T02:23:10;8.57;;;4.70;;
32347;SDS011;18821;44.800;10.326;2024-03-17T02:25:36;8.20;;;4.93;;
32347;SDS011;18821;44.800;10.326;2024-03-17T02:28:02;12.40;;;5.57;;
32347;SDS011;18821;44.800;10.326;2024-03-17T02:30:30;6.38;;;4.70;;
32347;SDS011;18821;44.800;10.326;2024-03-17T02:32:56;8.98;;;5.05;;
32347;SDS011;18821;44.800;10.326;2024-03-17T02:35:24;6.70;;;4.53;;
32347;SDS011;18821;44.800;10.326;2024-03-17T02:37:51;6.20;;;4.60;;
32347;SDS011;18821;44.800;10.326;2024-03-17T02:40:17;9.68;;;4.97;;
32347;SDS011;18821;44.800;10.326;2024-03-17T02:42:44;8.60;;;4.97;;
32347;SDS011;18821;44.800;10.326;2024-03-17T02:45:11;8.68;;;4.68;;
32347;SDS011;18821;44.800;10.326;2024-03-17T02:47:39;9.32;;;4.45;;
32347;SDS011;18821;44.800;10.326;2024-03-17T02:50:06;13.23;;;4.40;;
32347;SDS011;18821;44.800;10.326;2024-03-17T02:52:34;9.98;;;4.22;;
32347;SDS011;18821;44.800;10.326;2024-03-17T02:55:00;8.93;;;4.78;;
32347;SDS011;18821;44.800;10.326;2024-03-17T02:57:26;12.45;;;5.00;;
32347;SDS011;18821;44.800;10.326;2024-03-17T02:59:56;9.43;;;4.70;;
32347;SDS011;18821;44.800;10.326;2024-03-17T03:02:22;10.15;;;5.35;;
32347;SDS011;18821;44.800;10.326;2024-03-17T03:04:48;9.02;;;5.60;;
32347;SDS011;18821;44.800;10.326;2024-03-17T03:07:14;12.05;;;5.35;;
32347;SDS011;18821;44.800;10.326;2024-03-17T03:09:40;8.18;;;4.93;;
32347;SDS011;18821;44.800;10.326;2024-03-17T03:12:06;10.85;;;5.63;;
32347;SDS011;18821;44.800;10.326;2024-03-17T03:14:35;10.20;;;5.90;;
32347;SDS011;18821;44.800;10.326;2024-03-17T03:17:01;10.93;;;5.45;;
32347;SDS011;18821;44.800;10.326;2024-03-17T03:19:27;9.82;;;5.85;;
32347;SDS011;18821;44.800;10.326;2024-03-17T03:21:53;10.40;;;5.07;;
32347;SDS011;18821;44.800;10.326;2024-03-17T03:24:19;11.15;;;5.90;;
32347;SDS011;18821;44.800;10.326;2024-03-17T03:26:45;7.75;;;4.78;;
32347;SDS011;18821;44.800;10.326;2024-03-17T03:29:10;13.52;;;5.80;;
32347;SDS011;18821;44.800;10.326;2024-03-17T03:31:37;10.38;;;5.55;;
32347;SDS011;18821;44.800;10.326;2024-03-17T03:34:06;10.38;;;6.18;;
32347;SDS011;18821;44.800;10.326;2024-03-17T03:36:33;8.98;;;5.55;;
32347;SDS011;18821;44.800;10.326;2024-03-17T03:39:03;11.73;;;5.53;;
32347;SDS011;18821;44.800;10.326;2024-03-17T03:41:35;15.73;;;5.38;;
32347;SDS011;18821;44.800;10.326;2024-03-17T03:44:01;7.70;;;4.70;;
32347;SDS011;18821;44.800;10.326;2024-03-17T03:46:26;10.13;;;4.90;;
32347;SDS011;18821;44.800;10.326;2024-03-17T03:48:52;9.02;;;5.03;;
32347;SDS011;18821;44.800;10.326;2024-03-17T03:51:18;7.30;;;4.43;;
32347;SDS011;18821;44.800;10.326;2024-03-17T03:53:44;7.50;;;4.55;;
32347;SDS011;18821;44.800;10.326;2024-03-17T03:56:10;9.45;;;4.82;;
32347;SDS011;18821;44.800;10.326;2024-03-17T03:58:37;8.18;;;4.32;;
32347;SDS011;18821;44.800;10.326;2024-03-17T04:01:04;15.10;;;4.97;;
32347;SDS011;18821;44.800;10.326;2024-03-17T04:03:35;8.27;;;4.20;;
32347;SDS011;18821;44.800;10.326;2024-03-17T04:06:05;8.18;;;4.43;;
32347;SDS011;18821;44.800;10.326;2024-03-17T04:08:33;8.60;;;5.07;;
32347;SDS011;18821;44.800;10.326;2024-03-17T04:11:00;10.25;;;4.57;;
32347;SDS011;18821;44.800;10.326;2024-03-17T04:13:27;9.35;;;4.35;;
32347;SDS011;18821;44.800;10.326;2024-03-17T04:15:55;13.13;;;4.70;;
32347;SDS011;18821;44.800;10.326;2024-03-17T04:18:22;10.38;;;4.82;;
32347;SDS011;18821;44.800;10.326;2024-03-17T04:20:50;11.82;;;5.22;;
32347;SDS011;18821;44.800;10.326;2024-03-17T04:23:18;9.52;;;5.05;;
32347;SDS011;18821;44.800;10.326;2024-03-17T04:25:48;8.18;;;4.63;;
32347;SDS011;18821;44.800;10.326;2024-03-17T04:28:15;7.47;;;4.40;;
32347;SDS011;18821;44.800;10.326;2024-03-17T04:30:42;10.68;;;5.03;;
32347;SDS011;18821;44.800;10.326;2024-03-17T04:33:11;10.13;;;4.78;;
32347;SDS011;18821;44.800;10.326;2024-03-17T04:35:40;11.20;;;5.25;;
32347;SDS011;18821;44.800;10.326;2024-03-17T04:38:09;7.70;;;5.03;;
32347;SDS011;18821;44.800;10.326;2024-03-17T04:40:39;10.65;;;4.80;;
32347;SDS011;18821;44.800;10.326;2024-03-17T04:43:06;9.20;;;4.72;;
32347;SDS011;18821;44.800;10.326;2024-03-17T04:45:33;10.18;;;5.38;;
32347;SDS011;18821;44.800;10.326;2024-03-17T04:47:58;9.77;;;4.47;;
32347;SDS011;18821;44.800;10.326;2024-03-17T04:50:24;7.88;;;4.50;;
32347;SDS011;18821;44.800;10.326;2024-03-17T04:52:51;9.85;;;5.10;;
32347;SDS011;18821;44.800;10.326;2024-03-17T04:55:17;9.15;;;4.30;;
32347;SDS011;18821;44.800;10.326;2024-03-17T04:57:44;6.97;;;3.97;;
32347;SDS011;18821;44.800;10.326;2024-03-17T05:00:11;8.32;;;4.80;;
32347;SDS011;18821;44.800;10.326;2024-03-17T05:02:39;8.68;;;4.32;;
32347;SDS011;18821;44.800;10.326;2024-03-17T05:05:05;8.75;;;4.47;;
32347;SDS011;18821;44.800;10.326;2024-03-17T05:07:33;9.43;;;4.82;;
32347;SDS011;18821;44.800;10.326;2024-03-17T05:10:00;14.13;;;5.60;;
32347;SDS011;18821;44.800;10.326;2024-03-17T05:12:26;9.13;;;5.20;;
32347;SDS011;18821;44.800;10.326;2024-03-17T05:14:52;10.27;;;5.63;;
32347;SDS011;18821;44.800;10.326;2024-03-17T05:17:18;9.85;;;5.93;;
32347;SDS011;18821;44.800;10.326;2024-03-17T05:19:43;6.20;;;4.38;;
32347;SDS011;18821;44.800;10.326;2024-03-17T05:22:09;15.52;;;5.78;;
32347;SDS011;18821;44.800;10.326;2024-03-17T05:24:35;13.30;;;5.35;;
32347;SDS011;18821;44.800;10.326;2024-03-17T05:27:01;11.77;;;5.38;;
32347;SDS011;18821;44.800;10.326;2024-03-17T05:29:28;9.43;;;5.07;;
32347;SDS011;18821;44.800;10.326;2024-03-17T05:31:55;7.70;;;5.03;;
32347;SDS011;18821;44.800;10.326;2024-03-17T05:34:21;8.23;;;4.85;;
32347;SDS011;18821;44.800;10.326;2024-03-17T05:36:50;6.95;;;4.18;;
32347;SDS011;18821;44.800;10.326;2024-03-17T05:39:16;10.50;;;5.15;;
32347;SDS011;18821;44.800;10.326;2024-03-17T05:41:42;8.25;;;4.75;;
32347;SDS011;18821;44.800;10.326;2024-03-17T05:44:14;8.32;;;5.20;;
32347;SDS011;18821;44.800;10.326;2024-03-17T05:46:41;8.93;;;4.82;;
32347;SDS011;18821;44.800;10.326;2024-03-17T05:49:07;7.43;;;4.90;;
32347;SDS011;18821;44.800;10.326;2024-03-17T05:51:33;10.82;;;4.85;;
32347;SDS011;18821;44.800;10.326;2024-03-17T05:53:59;9.15;;;5.10;;
32347;SDS011;18821;44.800;10.326;2024-03-17T05:56:25;10.40;;;5.90;;
32347;SDS011;18821;44.800;10.326;2024-03-17T05:58:51;11.48;;;6.18;;
32347;SDS011;18821;44.800;10.326;2024-03-17T06:01:16;6.75;;;4.45;;
32347;SDS011;18821;44.800;10.326;2024-03-17T06:03:44;8.88;;;4.97;;
32347;SDS011;18821;44.800;10.326;2024-03-17T06:06:10;7.18;;;5.15;;
32347;SDS011;18821;44.800;10.326;2024-03-17T06:08:37;9.60;;;5.10;;
32347;SDS011;18821;44.800;10.326;2024-03-17T06:11:04;14.38;;;5.85;;
32347;SDS011;18821;44.800;10.326;2024-03-17T06:13:30;10.32;;;4.97;;
32347;SDS011;18821;44.800;10.326;2024-03-17T06:15:56;6.57;;;4.68;;
32347;SDS011;18821;44.800;10.326;2024-03-17T06:18:31;10.43;;;4.60;;
32347;SDS011;18821;44.800;10.326;2024-03-17T06:20:57;7.70;;;4.65;;
32347;SDS011;18821;44.800;10.326;2024-03-17T06:23:26;8.73;;;4.57;;
32347;SDS011;18821;44.800;10.326;2024-03-17T06:25:52;15.25;;;5.93;;
32347;SDS011;18821;44.800;10.326;2024-03-17T06:28:19;13.88;;;5.65;;
32347;SDS011;18821;44.800;10.326;2024-03-17T06:30:46;9.93;;;5.57;;
32347;SDS011;18821;44.800;10.326;2024-03-17T06:33:20;11.75;;;5.70;;
32347;SDS011;18821;44.800;10.326;2024-03-17T06:35:46;9.60;;;5.38;;
32347;SDS011;18821;44.800;10.326;2024-03-17T06:38:14;8.88;;;4.90;;
32347;SDS011;18821;44.800;10.326;2024-03-17T06:40:41;9.05;;;4.93;;
32347;SDS011;18821;44.800;10.326;2024-03-17T06:43:07;8.30;;;5.10;;
32347;SDS011;18821;44.800;10.326;2024-03-17T06:45:33;12.30;;;6.13;;
32347;SDS011;18821;44.800;10.326;2024-03-17T06:47:59;9.05;;;5.75;;
32347;SDS011;18821;44.800;10.326;2024-03-17T06:50:25;8.55;;;5.40;;
32347;SDS011;18821;44.800;10.326;2024-03-17T06:52:51;9.75;;;5.85;;
32347;SDS011;18821;44.800;10.326;2024-03-17T06:55:17;10.57;;;5.13;;
32347;SDS011;18821;44.800;10.326;2024-03-17T06:57:46;10.15;;;5.53;;
32347;SDS011;18821;44.800;10.326;2024-03-17T07:00:12;7.53;;;4.53;;
32347;SDS011;18821;44.800;10.326;2024-03-17T07:02:48;6.72;;;4.55;;
32347;SDS011;18821;44.800;10.326;2024-03-17T07:05:15;9.48;;;5.07;;
32347;SDS011;18821;44.800;10.326;2024-03-17T07:07:41;10.57;;;6.32;;
32347;SDS011;18821;44.800;10.326;2024-03-17T07:10:10;8.35;;;4.88;;
32347;SDS011;18821;44.800;10.326;2024-03-17T07:12:40;9.63;;;4.93;;
32347;SDS011;18821;44.800;10.326;2024-03-17T07:15:07;8.68;;;4.18;;
32347;SDS011;18821;44.800;10.326;2024-03-17T07:17:33;6.70;;;4.45;;
32347;SDS011;18821;44.800;10.326;2024-03-17T07:19:59;9.02;;;4.72;;
32347;SDS011;18821;44.800;10.326;2024-03-17T07:22:26;7.38;;;4.30;;
32347;SDS011;18821;44.800;10.326;2024-03-17T07:24:54;10.50;;;5.05;;
32347;SDS011;18821;44.800;10.326;2024-03-17T07:27:25;7.00;;;3.67;;
32347;SDS011;18821;44.800;10.326;2024-03-17T07:29:52;8.63;;;3.80;;
32347;SDS011;18821;44.800;10.326;2024-03-17T07:32:17;13.88;;;3.88;;
32347;SDS011;18821;44.800;10.326;2024-03-17T07:34:43;5.35;;;3.90;;
32347;SDS011;18821;44.800;10.326;2024-03-17T07:37:09;7.30;;;4.10;;
32347;SDS011;18821;44.800;10.326;2024-03-17T07:39:35;8.20;;;3.95;;
32347;SDS011;18821;44.800;10.326;2024-03-17T07:42:01;6.88;;;3.90;;
32347;SDS011;18821;44.800;10.326;2024-03-17T07:44:28;8.23;;;4.13;;
32347;SDS011;18821;44.800;10.326;2024-03-17T07:46:58;8.13;;;3.92;;
32347;SDS011;18821;44.800;10.326;2024-03-17T07:49:29;8.55;;;4.18;;
32347;SDS011;18821;44.800;10.326;2024-03-17T07:51:55;8.85;;;3.90;;
32347;SDS011;18821;44.800;10.326;2024-03-17T07:54:23;9.63;;;4.35;;
32347;SDS011;18821;44.800;10.326;2024-03-17T07:56:50;16.05;;;5.28;;
32347;SDS011;18821;44.800;10.326;2024-03-17T07:59:16;19.17;;;6.40;;
32347;SDS011;18821;44.800;10.326;2024-03-17T08:01:43;17.55;;;6.00;;
32347;SDS011;18821;44.800;10.326;2024-03-17T08:04:10;6.15;;;4.45;;
32347;SDS011;18821;44.800;10.326;2024-03-17T08:06:38;10.57;;;4.95;;
32347;SDS011;18821;44.800;10.326;2024-03-17T08:09:04;7.93;;;4.30;;
32347;SDS011;18821;44.800;10.326;2024-03-17T08:11:30;9.07;;;4.32;;
32347;SDS011;18821;44.800;10.326;2024-03-17T08:13:56;11.90;;;5.55;;
32347;SDS011;18821;44.800;10.326;2024-03-17T08:16:22;9.23;;;4.47;;
32347;SDS011;18821;44.800;10.326;2024-03-17T08:18:48;9.07;;;5.60;;
32347;SDS011;18821;44.800;10.326;2024-03-17T08:21:13;9.43;;;4.22;;
32347;SDS011;18821;44.800;10.326;2024-03-17T08:23:39;11.68;;;5.10;;
32347;SDS011;18821;44.800;10.326;2024-03-17T08:26:07;7.82;;;4.65;;
32347;SDS011;18821;44.800;10.326;2024-03-17T08:28:33;8.32;;;5.00;;
32347;SDS011;18821;44.800;10.326;2024-03-17T08:31:00;9.77;;;4.95;;
32347;SDS011;18821;44.800;10.326;2024-03-17T08:33:27;9.25;;;4.53;;
32347;SDS011;18821;44.800;10.326;2024-03-17T08:35:58;6.70;;;4.28;;
32347;SDS011;18821;44.800;10.326;2024-03-17T08:38:28;10.80;;;4.90;;
32347;SDS011;18821;44.800;10.326;2024-03-17T08:40:56;7.45;;;4.80;;
32347;SDS011;18821;44.800;10.326;2024-03-17T08:43:23;7.85;;;4.22;;
32347;SDS011;18821;44.800;10.326;2024-03-17T08:48:29;9.35;;;4.65;;
32347;SDS011;18821;44.800;10.326;2024-03-17T08:50:56;6.38;;;4.47;;
32347;SDS011;18821;44.800;10.326;2024-03-17T08:53:22;8.05;;;4.68;;
32347;SDS011;18821;44.800;10.326;2024-03-17T08:55:49;9.40;;;4.80;;
32347;SDS011;18821;44.800;10.326;2024-03-17T08:58:15;8.77;;;4.75;;
32347;SDS011;18821;44.800;10.326;2024-03-17T09:00:42;8.10;;;4.43;;
32347;SDS011;18821;44.800;10.326;2024-03-17T09:03:08;8.00;;;4.40;;
32347;SDS011;18821;44.800;10.326;2024-03-17T09:05:39;7.68;;;4.25;;
32347;SDS011;18821;44.800;10.326;2024-03-17T09:08:05;6.28;;;3.97;;
32347;SDS011;18821;44.800;10.326;2024-03-17T09:10:41;7.57;;;4.57;;
32347;SDS011;18821;44.800;10.326;2024-03-17T09:13:13;5.13;;;4.05;;
32347;SDS011;18821;44.800;10.326;2024-03-17T09:15:49;6.50;;;3.90;;
32347;SDS011;18821;44.800;10.326;2024-03-17T09:18:30;7.55;;;4.15;;
32347;SDS011;18821;44.800;10.326;2024-03-17T09:21:02;7.47;;;3.95;;
32347;SDS011;18821;44.800;10.326;2024-03-17T09:23:29;7.85;;;4.22;;
32347;SDS011;18821;44.800;10.326;2024-03-17T09:26:00;7.45;;;3.97;;
32347;SDS011;18821;44.800;10.326;2024-03-17T09:28:28;5.93;;;4.10;;
32347;SDS011;18821;44.800;10.326;2024-03-17T09:30:55;7.88;;;4.13;;
32347;SDS011;18821;44.800;10.326;2024-03-17T09:33:22;10.00;;;4.40;;
32347;SDS011;18821;44.800;10.326;2024-03-17T09:35:53;5.78;;;4.28;;
32347;SDS011;18821;44.800;10.326;2024-03-17T09:38:20;6.18;;;4.18;;
32347;SDS011;18821;44.800;10.326;2024-03-17T09:40:46;7.43;;;4.45;;
32347;SDS011;18821;44.800;10.326;2024-03-17T09:43:15;8.73;;;4.75;;
32347;SDS011;18821;44.800;10.326;2024-03-17T09:45:40;7.60;;;4.75;;
32347;SDS011;18821;44.800;10.326;2024-03-17T09:48:06;6.22;;;4.57;;
32347;SDS011;18821;44.800;10.326;2024-03-17T09:50:34;8.73;;;5.15;;
32347;SDS011;18821;44.800;10.326;2024-03-17T09:53:01;8.68;;;5.55;;
32347;SDS011;18821;44.800;10.326;2024-03-17T09:55:27;9.45;;;5.90;;
32347;SDS011;18821;44.800;10.326;2024-03-17T09:57:55;12.48;;;5.97;;
32347;SDS011;18821;44.800;10.326;2024-03-17T10:00:21;11.13;;;6.25;;
32347;SDS011;18821;44.800;10.326;2024-03-17T10:02:47;11.38;;;6.28;;
32347;SDS011;18821;44.800;10.326;2024-03-17T10:05:31;10.40;;;6.32;;
32347;SDS011;18821;44.800;10.326;2024-03-17T10:07:58;11.87;;;6.63;;
32347;SDS011;18821;44.800;10.326;2024-03-17T10:10:24;11.57;;;6.82;;
32347;SDS011;18821;44.800;10.326;2024-03-17T10:12:50;13.57;;;7.90;;
32347;SDS011;18821;44.800;10.326;2024-03-17T10:15:17;12.00;;;7.45;;
32347;SDS011;18821;44.800;10.326;2024-03-17T10:17:44;12.88;;;6.82;;
32347;SDS011;18821;44.800;10.326;2024-03-17T10:20:14;12.90;;;6.85;;
32347;SDS011;18821;44.800;10.326;2024-03-17T10:25:25;9.85;;;7.00;;
32347;SDS011;18821;44.800;10.326;2024-03-17T10:27:53;8.93;;;6.60;;
32347;SDS011;18821;44.800;10.326;2024-03-17T10:30:19;8.90;;;6.35;;
32347;SDS011;18821;44.800;10.326;2024-03-17T10:32:53;9.77;;;6.82;;
32347;SDS011;18821;44.800;10.326;2024-03-17T10:35:25;9.68;;;6.63;;
32347;SDS011;18821;44.800;10.326;2024-03-17T10:40:23;10.35;;;6.57;;
32347;SDS011;18821;44.800;10.326;2024-03-17T10:42:50;15.40;;;7.28;;
32347;SDS011;18821;44.800;10.326;2024-03-17T10:45:16;10.88;;;7.18;;
32347;SDS011;18821;44.800;10.326;2024-03-17T10:47:49;13.10;;;7.18;;
32347;SDS011;18821;44.800;10.326;2024-03-17T10:50:17;12.52;;;6.57;;
32347;SDS011;18821;44.800;10.326;2024-03-17T10:52:48;11.30;;;7.30;;
32347;SDS011;18821;44.800;10.326;2024-03-17T10:55:22;10.27;;;6.65;;
32347;SDS011;18821;44.800;10.326;2024-03-17T10:57:51;10.88;;;6.47;;
32347;SDS011;18821;44.800;10.326;2024-03-17T11:00:19;14.13;;;7.85;;
32347;SDS011;18821;44.800;10.326;2024-03-17T11:02:47;17.17;;;8.27;;
32347;SDS011;18821;44.800;10.326;2024-03-17T11:08:01;17.75;;;7.90;;
32347;SDS011;18821;44.800;10.326;2024-03-17T11:10:29;14.23;;;7.68;;
32347;SDS011;18821;44.800;10.326;2024-03-17T11:12:59;11.70;;;7.82;;
32347;SDS011;18821;44.800;10.326;2024-03-17T11:18:25;16.67;;;9.00;;
32347;SDS011;18821;44.800;10.326;2024-03-17T11:23:33;15.40;;;8.90;;
32347;SDS011;18821;44.800;10.326;2024-03-17T11:26:00;13.50;;;8.93;;
32347;SDS011;18821;44.800;10.326;2024-03-17T11:34:06;16.25;;;9.50;;
32347;SDS011;18821;44.800;10.326;2024-03-17T11:36:51;14.25;;;9.57;;
32347;SDS011;18821;44.800;10.326;2024-03-17T11:39:19;20.30;;;10.02;;
32347;SDS011;18821;44.800;10.326;2024-03-17T11:41:53;11.30;;;8.83;;
32347;SDS011;18821;44.800;10.326;2024-03-17T11:52:05;13.75;;;10.77;;
32347;SDS011;18821;44.800;10.326;2024-03-17T11:54:34;16.33;;;9.98;;
32347;SDS011;18821;44.800;10.326;2024-03-17T11:57:09;13.82;;;9.38;;
32347;SDS011;18821;44.800;10.326;2024-03-17T11:59:36;14.10;;;9.57;;
32347;SDS011;18821;44.800;10.326;2024-03-17T12:02:09;13.82;;;9.88;;
32347;SDS011;18821;44.800;10.326;2024-03-17T12:04:42;13.05;;;9.73;;
32347;SDS011;18821;44.800;10.326;2024-03-17T12:07:11;15.30;;;9.75;;
32347;SDS011;18821;44.800;10.326;2024-03-17T12:09:40;17.45;;;10.35;;
32347;SDS011;18821;44.800;10.326;2024-03-17T12:12:11;15.32;;;10.35;;
32347;SDS011;18821;44.800;10.326;2024-03-17T12:14:41;18.67;;;11.32;;
32347;SDS011;18821;44.800;10.326;2024-03-17T12:17:08;16.58;;;10.13;;
32347;SDS011;18821;44.800;10.326;2024-03-17T12:19:35;16.92;;;11.23;;
32347;SDS011;18821;44.800;10.326;2024-03-17T12:22:03;20.02;;;12.23;;
32347;SDS011;18821;44.800;10.326;2024-03-17T12:24:31;19.35;;;12.75;;
32347;SDS011;18821;44.800;10.326;2024-03-17T12:26:59;18.70;;;11.90;;
32347;SDS011;18821;44.800;10.326;2024-03-17T12:32:04;19.95;;;12.90;;
32347;SDS011;18821;44.800;10.326;2024-03-17T12:34:46;19.27;;;12.90;;
32347;SDS011;18821;44.800;10.326;2024-03-17T12:37:17;21.75;;;13.25;;
32347;SDS011;18821;44.800;10.326;2024-03-17T12:39:44;24.95;;;13.07;;
32347;SDS011;18821;44.800;10.326;2024-03-17T12:42:14;22.70;;;14.00;;
32347;SDS011;18821;44.800;10.326;2024-03-17T12:44:49;19.20;;;12.65;;
32347;SDS011;18821;44.800;10.326;2024-03-17T12:47:16;21.05;;;14.75;;
32347;SDS011;18821;44.800;10.326;2024-03-17T12:49:47;22.02;;;15.10;;
32347;SDS011;18821;44.800;10.326;2024-03-17T12:52:22;25.07;;;15.37;;
32347;SDS011;18821;44.800;10.326;2024-03-17T12:54:58;22.15;;;15.82;;
32347;SDS011;18821;44.800;10.326;2024-03-17T12:57:45;25.35;;;16.20;;
32347;SDS011;18821;44.800;10.326;2024-03-17T13:00:31;24.63;;;15.98;;
32347;SDS011;18821;44.800;10.326;2024-03-17T13:02:58;21.95;;;15.68;;
32347;SDS011;18821;44.800;10.326;2024-03-17T13:05:24;23.38;;;16.75;;
32347;SDS011;18821;44.800;10.326;2024-03-17T13:07:50;24.58;;;16.00;;
32347;SDS011;18821;44.800;10.326;2024-03-17T13:10:17;22.42;;;16.83;;
32347;SDS011;18821;44.800;10.326;2024-03-17T13:12:44;28.10;;;17.73;;
32347;SDS011;18821;44.800;10.326;2024-03-17T13:15:14;24.63;;;17.08;;
32347;SDS011;18821;44.800;10.326;2024-03-17T13:17:42;22.90;;;16.55;;
32347;SDS011;18821;44.800;10.326;2024-03-17T13:20:13;30.65;;;20.13;;
32347;SDS011;18821;44.800;10.326;2024-03-17T13:22:43;27.40;;;19.92;;
32347;SDS011;18821;44.800;10.326;2024-03-17T13:25:13;25.58;;;18.65;;
32347;SDS011;18821;44.800;10.326;2024-03-17T13:27:40;29.92;;;19.33;;
32347;SDS011;18821;44.800;10.326;2024-03-17T13:30:07;27.00;;;19.02;;
32347;SDS011;18821;44.800;10.326;2024-03-17T13:32:34;26.55;;;19.20;;
32347;SDS011;18821;44.800;10.326;2024-03-17T13:35:01;27.25;;;19.70;;
32347;SDS011;18821;44.800;10.326;2024-03-17T13:37:28;28.17;;;19.35;;
32347;SDS011;18821;44.800;10.326;2024-03-17T13:39:54;28.60;;;19.27;;
32347;SDS011;18821;44.800;10.326;2024-03-17T13:42:19;29.60;;;20.40;;
32347;SDS011;18821;44.800;10.326;2024-03-17T13:44:45;30.75;;;20.55;;
32347;SDS011;18821;44.800;10.326;2024-03-17T13:47:12;32.40;;;20.13;;
32347;SDS011;18821;44.800;10.326;2024-03-17T13:49:40;27.85;;;18.15;;
32347;SDS011;18821;44.800;10.326;2024-03-17T13:52:06;30.98;;;19.48;;
32347;SDS011;18821;44.800;10.326;2024-03-17T13:54:32;24.85;;;18.10;;
32347;SDS011;18821;44.800;10.326;2024-03-17T13:56:59;27.55;;;17.45;;
32347;SDS011;18821;44.800;10.326;2024-03-17T13:59:27;27.30;;;18.70;;
32347;SDS011;18821;44.800;10.326;2024-03-17T14:01:53;28.95;;;19.20;;
32347;SDS011;18821;44.800;10.326;2024-03-17T14:04:19;25.08;;;18.17;;
32347;SDS011;18821;44.800;10.326;2024-03-17T14:06:46;29.98;;;20.27;;
32347;SDS011;18821;44.800;10.326;2024-03-17T14:09:14;29.55;;;19.88;;
32347;SDS011;18821;44.800;10.326;2024-03-17T14:11:43;29.35;;;20.50;;
32347;SDS011;18821;44.800;10.326;2024-03-17T14:14:10;26.40;;;17.60;;
32347;SDS011;18821;44.800;10.326;2024-03-17T14:16:37;27.00;;;18.63;;
32347;SDS011;18821;44.800;10.326;2024-03-17T14:19:06;25.92;;;17.98;;
32347;SDS011;18821;44.800;10.326;2024-03-17T14:21:33;27.58;;;18.42;;
32347;SDS011;18821;44.800;10.326;2024-03-17T14:24:03;30.33;;;19.27;;
32347;SDS011;18821;44.800;10.326;2024-03-17T14:26:33;26.52;;;18.42;;
32347;SDS011;18821;44.800;10.326;2024-03-17T14:29:02;25.70;;;18.67;;
32347;SDS011;18821;44.800;10.326;2024-03-17T14:31:30;24.20;;;17.65;;
32347;SDS011;18821;44.800;10.326;2024-03-17T14:34:02;25.50;;;18.40;;
32347;SDS011;18821;44.800;10.326;2024-03-17T14:36:32;26.80;;;18.55;;
32347;SDS011;18821;44.800;10.326;2024-03-17T14:38:59;30.33;;;19.33;;
32347;SDS011;18821;44.800;10.326;2024-03-17T14:41:28;29.35;;;18.80;;
32347;SDS011;18821;44.800;10.326;2024-03-17T14:43:55;28.50;;;18.35;;
32347;SDS011;18821;44.800;10.326;2024-03-17T14:46:23;28.67;;;20.10;;
32347;SDS011;18821;44.800;10.326;2024-03-17T14:48:49;28.63;;;19.60;;
32347;SDS011;18821;44.800;10.326;2024-03-17T14:51:19;29.83;;;18.98;;
32347;SDS011;18821;44.800;10.326;2024-03-17T14:53:49;31.00;;;19.33;;
32347;SDS011;18821;44.800;10.326;2024-03-17T14:56:17;28.75;;;19.08;;
32347;SDS011;18821;44.800;10.326;2024-03-17T14:58:44;32.85;;;19.23;;